sensor_id;sensor_type;location;lat;lon;timestamp;P1;durP1;ratioP1;P2;durP2;ratioP2
27003;SDS011;14546;47.590;19.022;2024-03-23T00:55:36;28.10;;;15.00;;
27003;SDS011;14546;47.590;19.022;2024-03-23T00:58:02;27.35;;;14.48;;
27003;SDS011;14546;47.590;19.022;2024-03-23T01:00:28;31.95;;;15.68;;
27003;SDS011;14546;47.590;19.022;2024-03-23T01:02:54;27.23;;;14.98;;
27003;SDS011;14546;47.590;19.022;2024-03-23T01:05:20;34.45;;;14.55;;
27003;SDS011;14546;47.590;19.022;2024-03-23T01:07:46;28.45;;;14.57;;
27003;SDS011;14546;47.590;19.022;2024-03-23T01:10:12;24.25;;;15.10;;
27003;SDS011;14546;47.590;19.022;2024-03-23T01:12:38;34.65;;;15.40;;
27003;SDS011;14546;47.590;19.022;2024-03-23T01:15:05;30.75;;;16.55;;
27003;SDS011;14546;47.590;19.022;2024-03-23T01:17:31;29.63;;;15.90;;
27003;SDS011;14546;47.590;19.022;2024-03-23T01:19:57;34.65;;;15.68;;
27003;SDS011;14546;47.590;19.022;2024-03-23T01:22:23;29.15;;;15.80;;
27003;SDS011;14546;47.590;19.022;2024-03-23T01:24:49;33.90;;;15.50;;
27003;SDS011;14546;47.590;19.022;2024-03-23T01:27:15;31.45;;;15.13;;
27003;SDS011;14546;47.590;19.022;2024-03-23T01:29:42;31.08;;;14.98;;
27003;SDS011;14546;47.590;19.022;2024-03-23T01:32:08;26.63;;;15.50;;
27003;SDS011;14546;47.590;19.022;2024-03-23T01:34:35;28.25;;;15.55;;
27003;SDS011;14546;47.590;19.022;2024-03-23T01:37:01;28.48;;;16.52;;
27003;SDS011;14546;47.590;19.022;2024-03-23T01:39:28;28.52;;;15.60;;
27003;SDS011;14546;47.590;19.022;2024-03-23T01:41:54;30.50;;;16.42;;
27003;SDS011;14546;47.590;19.022;2024-03-23T01:44:21;34.30;;;17.38;;
27003;SDS011;14546;47.590;19.022;2024-03-23T01:46:47;28.52;;;15.82;;
27003;SDS011;14546;47.590;19.022;2024-03-23T01:49:13;33.00;;;16.15;;
27003;SDS011;14546;47.590;19.022;2024-03-23T01:51:39;32.30;;;16.58;;
27003;SDS011;14546;47.590;19.022;2024-03-23T01:54:06;32.70;;;17.35;;
27003;SDS011;14546;47.590;19.022;2024-03-23T01:56:33;28.05;;;15.70;;
27003;SDS011;14546;47.590;19.022;2024-03-23T01:59:03;27.90;;;16.48;;
27003;SDS011;14546;47.590;19.022;2024-03-23T02:01:29;34.45;;;17.15;;
27003;SDS011;14546;47.590;19.022;2024-03-23T02:03:55;30.60;;;16.75;;
27003;SDS011;14546;47.590;19.022;2024-03-23T02:06:21;30.88;;;16.65;;
27003;SDS011;14546;47.590;19.022;2024-03-23T02:08:48;28.00;;;16.60;;
27003;SDS011;14546;47.590;19.022;2024-03-23T02:11:14;33.85;;;17.23;;
27003;SDS011;14546;47.590;19.022;2024-03-23T02:13:40;36.55;;;18.15;;
27003;SDS011;14546;47.590;19.022;2024-03-23T02:16:07;32.42;;;17.98;;
27003;SDS011;14546;47.590;19.022;2024-03-23T02:18:33;35.10;;;18.25;;
27003;SDS011;14546;47.590;19.022;2024-03-23T02:20:59;35.20;;;18.95;;
27003;SDS011;14546;47.590;19.022;2024-03-23T02:23:25;38.45;;;19.67;;
27003;SDS011;14546;47.590;19.022;2024-03-23T02:25:51;41.40;;;20.65;;
27003;SDS011;14546;47.590;19.022;2024-03-23T02:28:23;33.58;;;19.15;;
27003;SDS011;14546;47.590;19.022;2024-03-23T02:30:50;39.05;;;21.27;;
27003;SDS011;14546;47.590;19.022;2024-03-23T02:33:17;46.13;;;22.08;;
27003;SDS011;14546;47.590;19.022;2024-03-23T02:35:44;40.05;;;22.15;;
27003;SDS011;14546;47.590;19.022;2024-03-23T02:38:10;42.72;;;23.23;;
27003;SDS011;14546;47.590;19.022;2024-03-23T02:40:38;48.40;;;24.30;;
27003;SDS011;14546;47.590;19.022;2024-03-23T02:43:05;46.67;;;23.48;;
27003;SDS011;14546;47.590;19.022;2024-03-23T02:45:32;45.95;;;23.70;;
27003;SDS011;14546;47.590;19.022;2024-03-23T02:47:59;44.83;;;23.95;;
27003;SDS011;14546;47.590;19.022;2024-03-23T02:50:25;46.22;;;22.52;;
27003;SDS011;14546;47.590;19.022;2024-03-23T02:52:51;46.70;;;24.75;;
27003;SDS011;14546;47.590;19.022;2024-03-23T02:55:17;52.25;;;25.33;;
27003;SDS011;14546;47.590;19.022;2024-03-23T02:57:43;54.03;;;27.10;;
27003;SDS011;14546;47.590;19.022;2024-03-23T03:00:09;45.83;;;26.90;;
27003;SDS011;14546;47.590;19.022;2024-03-23T03:02:36;49.70;;;26.92;;
27003;SDS011;14546;47.590;19.022;2024-03-23T03:05:03;53.70;;;27.17;;
27003;SDS011;14546;47.590;19.022;2024-03-23T03:07:30;55.97;;;29.30;;
27003;SDS011;14546;47.590;19.022;2024-03-23T03:09:56;53.63;;;28.52;;
27003;SDS011;14546;47.590;19.022;2024-03-23T03:12:22;49.97;;;28.85;;
27003;SDS011;14546;47.590;19.022;2024-03-23T03:14:48;57.58;;;30.13;;
27003;SDS011;14546;47.590;19.022;2024-03-23T03:17:14;53.10;;;29.65;;
27003;SDS011;14546;47.590;19.022;2024-03-23T03:19:40;61.28;;;30.73;;
27003;SDS011;14546;47.590;19.022;2024-03-23T03:22:06;53.08;;;29.70;;
27003;SDS011;14546;47.590;19.022;2024-03-23T03:24:32;58.35;;;31.33;;
27003;SDS011;14546;47.590;19.022;2024-03-23T03:26:58;58.53;;;32.83;;
27003;SDS011;14546;47.590;19.022;2024-03-23T03:29:24;52.35;;;30.67;;
27003;SDS011;14546;47.590;19.022;2024-03-23T03:31:50;57.25;;;31.13;;
27003;SDS011;14546;47.590;19.022;2024-03-23T03:34:17;60.08;;;31.85;;
27003;SDS011;14546;47.590;19.022;2024-03-23T03:36:43;58.63;;;31.02;;
27003;SDS011;14546;47.590;19.022;2024-03-23T03:39:09;51.25;;;31.15;;
27003;SDS011;14546;47.590;19.022;2024-03-23T03:41:35;63.80;;;32.03;;
27003;SDS011;14546;47.590;19.022;2024-03-23T03:44:01;60.28;;;30.75;;
27003;SDS011;14546;47.590;19.022;2024-03-23T03:46:28;58.25;;;31.48;;
27003;SDS011;14546;47.590;19.022;2024-03-23T03:48:54;54.70;;;32.53;;
27003;SDS011;14546;47.590;19.022;2024-03-23T03:51:19;67.63;;;34.35;;
27003;SDS011;14546;47.590;19.022;2024-03-23T03:53:46;56.95;;;31.95;;
27003;SDS011;14546;47.590;19.022;2024-03-23T03:56:12;60.05;;;32.70;;
27003;SDS011;14546;47.590;19.022;2024-03-23T03:58:37;59.22;;;33.78;;
27003;SDS011;14546;47.590;19.022;2024-03-23T04:01:06;59.13;;;33.20;;
27003;SDS011;14546;47.590;19.022;2024-03-23T04:03:31;59.40;;;33.63;;
27003;SDS011;14546;47.590;19.022;2024-03-23T04:05:57;61.80;;;33.97;;
27003;SDS011;14546;47.590;19.022;2024-03-23T04:08:23;61.53;;;33.45;;
27003;SDS011;14546;47.590;19.022;2024-03-23T04:10:49;60.80;;;32.75;;
27003;SDS011;14546;47.590;19.022;2024-03-23T04:13:15;58.60;;;32.53;;
27003;SDS011;14546;47.590;19.022;2024-03-23T04:15:42;67.15;;;34.35;;
27003;SDS011;14546;47.590;19.022;2024-03-23T04:18:08;58.25;;;33.72;;
27003;SDS011;14546;47.590;19.022;2024-03-23T04:20:33;62.13;;;33.35;;
27003;SDS011;14546;47.590;19.022;2024-03-23T04:23:00;65.90;;;34.70;;
27003;SDS011;14546;47.590;19.022;2024-03-23T04:25:27;62.03;;;33.90;;
27003;SDS011;14546;47.590;19.022;2024-03-23T04:27:53;59.75;;;34.55;;
27003;SDS011;14546;47.590;19.022;2024-03-23T04:30:19;60.00;;;34.65;;
27003;SDS011;14546;47.590;19.022;2024-03-23T04:32:46;66.50;;;34.60;;
27003;SDS011;14546;47.590;19.022;2024-03-23T04:35:13;66.88;;;34.92;;
27003;SDS011;14546;47.590;19.022;2024-03-23T04:37:39;58.85;;;34.03;;
27003;SDS011;14546;47.590;19.022;2024-03-23T04:40:08;61.30;;;33.15;;
27003;SDS011;14546;47.590;19.022;2024-03-23T04:42:34;55.58;;;32.10;;
27003;SDS011;14546;47.590;19.022;2024-03-23T04:45:00;59.17;;;33.17;;
27003;SDS011;14546;47.590;19.022;2024-03-23T04:47:27;59.17;;;32.45;;
27003;SDS011;14546;47.590;19.022;2024-03-23T04:49:54;67.53;;;35.28;;
27003;SDS011;14546;47.590;19.022;2024-03-23T04:52:20;62.20;;;35.67;;
27003;SDS011;14546;47.590;19.022;2024-03-23T04:54:46;60.33;;;31.67;;
27003;SDS011;14546;47.590;19.022;2024-03-23T04:57:13;62.45;;;34.05;;
27003;SDS011;14546;47.590;19.022;2024-03-23T04:59:40;68.10;;;34.72;;
27003;SDS011;14546;47.590;19.022;2024-03-23T05:02:06;54.88;;;33.15;;
27003;SDS011;14546;47.590;19.022;2024-03-23T05:04:32;64.07;;;34.08;;
27003;SDS011;14546;47.590;19.022;2024-03-23T05:06:59;59.30;;;34.53;;
27003;SDS011;14546;47.590;19.022;2024-03-23T05:09:25;59.03;;;34.72;;
27003;SDS011;14546;47.590;19.022;2024-03-23T05:11:55;63.33;;;34.67;;
27003;SDS011;14546;47.590;19.022;2024-03-23T05:14:22;64.82;;;34.13;;
27003;SDS011;14546;47.590;19.022;2024-03-23T05:16:48;65.70;;;34.85;;
27003;SDS011;14546;47.590;19.022;2024-03-23T05:19:14;59.85;;;33.63;;
27003;SDS011;14546;47.590;19.022;2024-03-23T05:21:40;66.47;;;34.40;;
27003;SDS011;14546;47.590;19.022;2024-03-23T05:24:06;64.70;;;34.55;;
27003;SDS011;14546;47.590;19.022;2024-03-23T05:26:32;65.22;;;34.25;;
27003;SDS011;14546;47.590;19.022;2024-03-23T05:28:59;53.45;;;32.70;;
27003;SDS011;14546;47.590;19.022;2024-03-23T05:31:25;60.15;;;34.58;;
27003;SDS011;14546;47.590;19.022;2024-03-23T05:33:52;55.47;;;33.28;;
27003;SDS011;14546;47.590;19.022;2024-03-23T05:36:18;58.80;;;32.22;;
27003;SDS011;14546;47.590;19.022;2024-03-23T05:38:44;58.47;;;33.88;;
27003;SDS011;14546;47.590;19.022;2024-03-23T05:41:11;57.78;;;33.78;;
27003;SDS011;14546;47.590;19.022;2024-03-23T05:43:38;58.17;;;33.75;;
27003;SDS011;14546;47.590;19.022;2024-03-23T05:46:04;61.45;;;32.47;;
27003;SDS011;14546;47.590;19.022;2024-03-23T05:48:31;55.42;;;32.55;;
27003;SDS011;14546;47.590;19.022;2024-03-23T05:50:57;60.70;;;33.10;;
27003;SDS011;14546;47.590;19.022;2024-03-23T05:53:24;50.83;;;31.23;;
27003;SDS011;14546;47.590;19.022;2024-03-23T05:55:51;55.78;;;32.33;;
27003;SDS011;14546;47.590;19.022;2024-03-23T05:58:19;54.13;;;31.30;;
27003;SDS011;14546;47.590;19.022;2024-03-23T06:00:46;56.17;;;32.45;;
27003;SDS011;14546;47.590;19.022;2024-03-23T06:03:12;56.00;;;32.03;;
27003;SDS011;14546;47.590;19.022;2024-03-23T06:05:38;52.95;;;31.92;;
27003;SDS011;14546;47.590;19.022;2024-03-23T06:08:04;58.53;;;30.52;;
27003;SDS011;14546;47.590;19.022;2024-03-23T06:10:30;53.70;;;29.95;;
27003;SDS011;14546;47.590;19.022;2024-03-23T06:12:56;50.30;;;29.35;;
27003;SDS011;14546;47.590;19.022;2024-03-23T06:15:24;49.03;;;28.42;;
27003;SDS011;14546;47.590;19.022;2024-03-23T06:17:50;47.97;;;28.65;;
27003;SDS011;14546;47.590;19.022;2024-03-23T06:20:16;45.65;;;29.65;;
27003;SDS011;14546;47.590;19.022;2024-03-23T06:22:42;49.47;;;27.83;;
27003;SDS011;14546;47.590;19.022;2024-03-23T06:25:09;46.83;;;29.73;;
27003;SDS011;14546;47.590;19.022;2024-03-23T06:27:37;50.10;;;27.40;;
27003;SDS011;14546;47.590;19.022;2024-03-23T06:30:04;49.10;;;27.00;;
27003;SDS011;14546;47.590;19.022;2024-03-23T06:32:30;46.80;;;28.50;;
27003;SDS011;14546;47.590;19.022;2024-03-23T06:34:56;46.22;;;27.63;;
27003;SDS011;14546;47.590;19.022;2024-03-23T06:37:22;44.83;;;27.60;;
27003;SDS011;14546;47.590;19.022;2024-03-23T06:39:48;41.40;;;25.77;;
27003;SDS011;14546;47.590;19.022;2024-03-23T06:42:16;44.22;;;26.38;;
27003;SDS011;14546;47.590;19.022;2024-03-23T06:44:43;45.80;;;25.55;;
27003;SDS011;14546;47.590;19.022;2024-03-23T06:47:10;40.15;;;24.38;;
27003;SDS011;14546;47.590;19.022;2024-03-23T06:49:37;45.60;;;26.27;;
27003;SDS011;14546;47.590;19.022;2024-03-23T06:52:04;41.53;;;26.58;;
27003;SDS011;14546;47.590;19.022;2024-03-23T06:54:30;42.55;;;26.00;;
27003;SDS011;14546;47.590;19.022;2024-03-23T06:56:56;40.90;;;25.55;;
27003;SDS011;14546;47.590;19.022;2024-03-23T06:59:22;42.72;;;26.73;;
27003;SDS011;14546;47.590;19.022;2024-03-23T07:01:48;44.08;;;26.40;;
27003;SDS011;14546;47.590;19.022;2024-03-23T07:04:13;38.97;;;25.08;;
27003;SDS011;14546;47.590;19.022;2024-03-23T07:06:43;38.05;;;25.27;;
27003;SDS011;14546;47.590;19.022;2024-03-23T07:09:09;38.95;;;25.70;;
27003;SDS011;14546;47.590;19.022;2024-03-23T07:11:36;42.58;;;25.85;;
27003;SDS011;14546;47.590;19.022;2024-03-23T07:14:01;49.85;;;26.08;;
27003;SDS011;14546;47.590;19.022;2024-03-23T07:16:28;42.95;;;26.30;;
27003;SDS011;14546;47.590;19.022;2024-03-23T07:18:54;44.30;;;26.60;;
27003;SDS011;14546;47.590;19.022;2024-03-23T07:21:21;38.90;;;25.40;;
27003;SDS011;14546;47.590;19.022;2024-03-23T07:23:47;35.65;;;24.65;;
27003;SDS011;14546;47.590;19.022;2024-03-23T07:26:13;39.00;;;25.67;;
27003;SDS011;14546;47.590;19.022;2024-03-23T07:28:39;36.55;;;24.17;;
27003;SDS011;14546;47.590;19.022;2024-03-23T07:31:12;36.10;;;25.38;;
27003;SDS011;14546;47.590;19.022;2024-03-23T07:33:43;42.08;;;26.05;;
27003;SDS011;14546;47.590;19.022;2024-03-23T07:36:11;44.03;;;25.95;;
27003;SDS011;14546;47.590;19.022;2024-03-23T07:38:37;46.80;;;25.83;;
27003;SDS011;14546;47.590;19.022;2024-03-23T07:41:05;40.05;;;25.83;;
27003;SDS011;14546;47.590;19.022;2024-03-23T07:43:32;35.88;;;25.30;;
27003;SDS011;14546;47.590;19.022;2024-03-23T07:45:58;65.78;;;27.52;;
27003;SDS011;14546;47.590;19.022;2024-03-23T07:48:25;37.20;;;23.90;;
27003;SDS011;14546;47.590;19.022;2024-03-23T07:53:33;39.38;;;25.05;;
27003;SDS011;14546;47.590;19.022;2024-03-23T07:56:02;39.35;;;24.80;;
27003;SDS011;14546;47.590;19.022;2024-03-23T07:58:30;38.70;;;25.40;;
27003;SDS011;14546;47.590;19.022;2024-03-23T08:00:56;43.40;;;25.67;;
27003;SDS011;14546;47.590;19.022;2024-03-23T08:03:29;38.90;;;26.20;;
27003;SDS011;14546;47.590;19.022;2024-03-23T08:05:55;36.38;;;23.85;;
27003;SDS011;14546;47.590;19.022;2024-03-23T08:08:20;37.15;;;24.92;;
27003;SDS011;14546;47.590;19.022;2024-03-23T08:10:47;42.00;;;26.45;;
27003;SDS011;14546;47.590;19.022;2024-03-23T08:13:17;36.58;;;25.02;;
27003;SDS011;14546;47.590;19.022;2024-03-23T08:15:45;38.75;;;24.80;;
27003;SDS011;14546;47.590;19.022;2024-03-23T08:18:13;43.97;;;26.23;;
27003;SDS011;14546;47.590;19.022;2024-03-23T08:20:42;41.40;;;24.48;;
27003;SDS011;14546;47.590;19.022;2024-03-23T08:23:09;40.50;;;25.90;;
27003;SDS011;14546;47.590;19.022;2024-03-23T08:25:35;37.08;;;24.50;;
27003;SDS011;14546;47.590;19.022;2024-03-23T08:28:01;41.33;;;24.77;;
27003;SDS011;14546;47.590;19.022;2024-03-23T08:30:27;42.20;;;25.55;;
27003;SDS011;14546;47.590;19.022;2024-03-23T08:32:54;37.95;;;26.23;;
27003;SDS011;14546;47.590;19.022;2024-03-23T08:35:19;44.35;;;26.25;;
27003;SDS011;14546;47.590;19.022;2024-03-23T08:37:46;37.25;;;24.98;;
27003;SDS011;14546;47.590;19.022;2024-03-23T08:40:11;45.55;;;27.13;;
27003;SDS011;14546;47.590;19.022;2024-03-23T08:42:38;47.75;;;27.88;;
27003;SDS011;14546;47.590;19.022;2024-03-23T08:45:05;42.20;;;26.02;;
27003;SDS011;14546;47.590;19.022;2024-03-23T08:47:34;38.75;;;25.30;;
27003;SDS011;14546;47.590;19.022;2024-03-23T08:50:01;43.55;;;25.67;;
27003;SDS011;14546;47.590;19.022;2024-03-23T08:52:27;34.03;;;23.35;;
27003;SDS011;14546;47.590;19.022;2024-03-23T08:54:54;38.50;;;24.50;;
27003;SDS011;14546;47.590;19.022;2024-03-23T08:57:21;37.78;;;24.88;;
27003;SDS011;14546;47.590;19.022;2024-03-23T08:59:47;36.45;;;24.33;;
27003;SDS011;14546;47.590;19.022;2024-03-23T09:02:14;38.40;;;23.95;;
27003;SDS011;14546;47.590;19.022;2024-03-23T09:04:40;34.17;;;24.13;;
27003;SDS011;14546;47.590;19.022;2024-03-23T09:07:06;36.03;;;21.42;;
27003;SDS011;14546;47.590;19.022;2024-03-23T09:09:32;26.58;;;18.98;;
27003;SDS011;14546;47.590;19.022;2024-03-23T09:11:58;27.88;;;18.23;;
27003;SDS011;14546;47.590;19.022;2024-03-23T09:14:24;21.10;;;15.20;;
27003;SDS011;14546;47.590;19.022;2024-03-23T09:16:50;20.98;;;14.00;;
27003;SDS011;14546;47.590;19.022;2024-03-23T09:19:17;22.40;;;14.57;;
27003;SDS011;14546;47.590;19.022;2024-03-23T09:21:43;25.52;;;15.70;;
27003;SDS011;14546;47.590;19.022;2024-03-23T09:24:09;23.35;;;15.88;;
27003;SDS011;14546;47.590;19.022;2024-03-23T09:26:35;20.05;;;14.20;;
27003;SDS011;14546;47.590;19.022;2024-03-23T09:29:01;28.63;;;14.15;;
27003;SDS011;14546;47.590;19.022;2024-03-23T09:31:27;26.05;;;13.85;;
27003;SDS011;14546;47.590;19.022;2024-03-23T09:33:53;19.27;;;13.80;;
27003;SDS011;14546;47.590;19.022;2024-03-23T09:36:20;24.10;;;13.13;;
27003;SDS011;14546;47.590;19.022;2024-03-23T09:38:47;21.73;;;12.73;;
27003;SDS011;14546;47.590;19.022;2024-03-23T09:41:13;19.10;;;14.23;;
27003;SDS011;14546;47.590;19.022;2024-03-23T09:43:40;19.35;;;12.43;;
27003;SDS011;14546;47.590;19.022;2024-03-23T09:46:07;16.90;;;10.40;;
27003;SDS011;14546;47.590;19.022;2024-03-23T09:48:34;20.48;;;10.90;;
27003;SDS011;14546;47.590;19.022;2024-03-23T09:51:00;14.15;;;10.65;;
27003;SDS011;14546;47.590;19.022;2024-03-23T09:53:28;13.10;;;9.32;;
27003;SDS011;14546;47.590;19.022;2024-03-23T09:55:54;15.82;;;8.93;;
27003;SDS011;14546;47.590;19.022;2024-03-23T09:58:20;16.67;;;7.95;;
27003;SDS011;14546;47.590;19.022;2024-03-23T10:00:46;10.95;;;7.97;;
27003;SDS011;14546;47.590;19.022;2024-03-23T10:03:13;16.45;;;8.77;;
27003;SDS011;14546;47.590;19.022;2024-03-23T10:05:40;13.68;;;8.13;;
27003;SDS011;14546;47.590;19.022;2024-03-23T10:10:39;11.93;;;7.45;;
27003;SDS011;14546;47.590;19.022;2024-03-23T10:13:05;12.05;;;7.20;;
27003;SDS011;14546;47.590;19.022;2024-03-23T10:15:33;10.20;;;6.95;;
27003;SDS011;14546;47.590;19.022;2024-03-23T10:18:20;12.85;;;6.80;;
27003;SDS011;14546;47.590;19.022;2024-03-23T10:23:33;11.05;;;6.53;;
27003;SDS011;14546;47.590;19.022;2024-03-23T10:28:50;10.10;;;6.75;;
27003;SDS011;14546;47.590;19.022;2024-03-23T10:31:16;12.35;;;6.50;;
27003;SDS011;14546;47.590;19.022;2024-03-23T10:33:47;13.13;;;6.93;;
27003;SDS011;14546;47.590;19.022;2024-03-23T10:36:13;12.48;;;6.70;;
27003;SDS011;14546;47.590;19.022;2024-03-23T10:38:43;10.65;;;6.43;;
27003;SDS011;14546;47.590;19.022;2024-03-23T10:41:10;16.55;;;7.15;;
27003;SDS011;14546;47.590;19.022;2024-03-23T10:43:37;11.15;;;7.00;;
27003;SDS011;14546;47.590;19.022;2024-03-23T10:46:04;16.63;;;7.55;;
27003;SDS011;14546;47.590;19.022;2024-03-23T10:48:31;16.38;;;6.85;;
27003;SDS011;14546;47.590;19.022;2024-03-23T10:50:57;14.85;;;6.85;;
27003;SDS011;14546;47.590;19.022;2024-03-23T10:53:27;12.30;;;7.05;;
27003;SDS011;14546;47.590;19.022;2024-03-23T10:55:55;14.93;;;6.82;;
27003;SDS011;14546;47.590;19.022;2024-03-23T10:58:33;9.73;;;6.82;;
27003;SDS011;14546;47.590;19.022;2024-03-23T11:01:02;10.18;;;6.65;;
27003;SDS011;14546;47.590;19.022;2024-03-23T11:05:57;11.07;;;6.68;;
27003;SDS011;14546;47.590;19.022;2024-03-23T11:13:40;11.00;;;6.43;;
27003;SDS011;14546;47.590;19.022;2024-03-23T11:16:14;9.32;;;5.88;;
27003;SDS011;14546;47.590;19.022;2024-03-23T11:18:42;10.15;;;5.75;;
27003;SDS011;14546;47.590;19.022;2024-03-23T11:21:10;12.88;;;5.93;;
27003;SDS011;14546;47.590;19.022;2024-03-23T11:23:36;7.45;;;5.28;;
27003;SDS011;14546;47.590;19.022;2024-03-23T11:26:02;8.27;;;5.40;;
27003;SDS011;14546;47.590;19.022;2024-03-23T11:28:32;8.70;;;5.30;;
27003;SDS011;14546;47.590;19.022;2024-03-23T11:30:58;14.15;;;5.47;;
27003;SDS011;14546;47.590;19.022;2024-03-23T11:33:24;16.65;;;5.85;;
27003;SDS011;14546;47.590;19.022;2024-03-23T11:35:50;15.38;;;5.05;;
27003;SDS011;14546;47.590;19.022;2024-03-23T11:38:17;8.80;;;4.68;;
27003;SDS011;14546;47.590;19.022;2024-03-23T11:40:44;14.82;;;4.93;;
27003;SDS011;14546;47.590;19.022;2024-03-23T11:43:14;7.43;;;4.30;;
27003;SDS011;14546;47.590;19.022;2024-03-23T11:45:44;14.57;;;5.00;;
27003;SDS011;14546;47.590;19.022;2024-03-23T11:48:12;5.10;;;3.90;;
27003;SDS011;14546;47.590;19.022;2024-03-23T11:50:40;7.85;;;4.07;;
27003;SDS011;14546;47.590;19.022;2024-03-23T11:58:11;16.25;;;4.50;;
27003;SDS011;14546;47.590;19.022;2024-03-23T12:00:38;8.10;;;3.97;;
27003;SDS011;14546;47.590;19.022;2024-03-23T12:03:04;6.85;;;4.18;;
27003;SDS011;14546;47.590;19.022;2024-03-23T12:05:30;15.23;;;4.63;;
27003;SDS011;14546;47.590;19.022;2024-03-23T12:11:25;9.63;;;4.60;;
27003;SDS011;14546;47.590;19.022;2024-03-23T12:13:32;7.40;;;4.53;;
27003;SDS011;14546;47.590;19.022;2024-03-23T12:16:11;7.70;;;4.35;;
27003;SDS011;14546;47.590;19.022;2024-03-23T12:18:38;8.85;;;5.20;;
27003;SDS011;14546;47.590;19.022;2024-03-23T12:21:04;8.95;;;5.03;;
27003;SDS011;14546;47.590;19.022;2024-03-23T12:23:30;6.72;;;4.40;;
27003;SDS011;14546;47.590;19.022;2024-03-23T12:25:57;9.45;;;4.72;;
27003;SDS011;14546;47.590;19.022;2024-03-23T12:28:23;7.18;;;4.68;;
27003;SDS011;14546;47.590;19.022;2024-03-23T12:30:50;13.05;;;4.30;;
27003;SDS011;14546;47.590;19.022;2024-03-23T12:33:18;5.88;;;4.38;;
27003;SDS011;14546;47.590;19.022;2024-03-23T12:35:45;11.18;;;5.45;;
27003;SDS011;14546;47.590;19.022;2024-03-23T12:38:12;12.43;;;4.40;;
27003;SDS011;14546;47.590;19.022;2024-03-23T12:40:38;8.10;;;3.88;;
27003;SDS011;14546;47.590;19.022;2024-03-23T12:43:05;10.73;;;4.10;;
27003;SDS011;14546;47.590;19.022;2024-03-23T12:45:33;7.00;;;4.22;;
27003;SDS011;14546;47.590;19.022;2024-03-23T12:48:00;8.23;;;4.20;;
27003;SDS011;14546;47.590;19.022;2024-03-23T12:50:26;7.53;;;4.47;;
27003;SDS011;14546;47.590;19.022;2024-03-23T12:52:53;9.02;;;3.92;;
27003;SDS011;14546;47.590;19.022;2024-03-23T12:55:19;4.15;;;3.35;;
27003;SDS011;14546;47.590;19.022;2024-03-23T12:57:46;8.88;;;3.75;;
27003;SDS011;14546;47.590;19.022;2024-03-23T13:00:13;7.65;;;4.13;;
27003;SDS011;14546;47.590;19.022;2024-03-23T13:02:42;12.05;;;4.63;;
27003;SDS011;14546;47.590;19.022;2024-03-23T13:05:09;11.63;;;4.00;;
27003;SDS011;14546;47.590;19.022;2024-03-23T13:07:36;10.25;;;4.82;;
27003;SDS011;14546;47.590;19.022;2024-03-23T13:10:05;9.02;;;4.30;;
27003;SDS011;14546;47.590;19.022;2024-03-23T13:12:31;14.70;;;4.05;;
27003;SDS011;14546;47.590;19.022;2024-03-23T13:14:59;5.85;;;3.80;;
27003;SDS011;14546;47.590;19.022;2024-03-23T13:17:27;11.15;;;5.20;;
27003;SDS011;14546;47.590;19.022;2024-03-23T13:19:54;13.57;;;6.03;;
27003;SDS011;14546;47.590;19.022;2024-03-23T13:22:21;10.63;;;5.10;;
27003;SDS011;14546;47.590;19.022;2024-03-23T13:24:47;6.38;;;3.90;;
27003;SDS011;14546;47.590;19.022;2024-03-23T13:27:14;5.85;;;3.75;;
27003;SDS011;14546;47.590;19.022;2024-03-23T13:29:40;6.82;;;4.07;;
27003;SDS011;14546;47.590;19.022;2024-03-23T13:32:06;7.90;;;3.85;;
27003;SDS011;14546;47.590;19.022;2024-03-23T13:34:32;8.90;;;4.35;;
27003;SDS011;14546;47.590;19.022;2024-03-23T13:37:00;13.55;;;5.28;;
27003;SDS011;14546;47.590;19.022;2024-03-23T13:39:26;10.82;;;4.85;;
27003;SDS011;14546;47.590;19.022;2024-03-23T13:41:53;14.05;;;4.05;;
27003;SDS011;14546;47.590;19.022;2024-03-23T13:44:21;7.03;;;3.65;;
27003;SDS011;14546;47.590;19.022;2024-03-23T13:46:48;9.60;;;3.63;;
27003;SDS011;14546;47.590;19.022;2024-03-23T13:49:25;6.90;;;2.78;;
27003;SDS011;14546;47.590;19.022;2024-03-23T13:51:52;6.55;;;3.58;;
27003;SDS011;14546;47.590;19.022;2024-03-23T13:54:18;7.25;;;3.45;;
27003;SDS011;14546;47.590;19.022;2024-03-23T13:56:44;8.45;;;2.95;;
27003;SDS011;14546;47.590;19.022;2024-03-23T13:59:10;4.10;;;2.92;;
27003;SDS011;14546;47.590;19.022;2024-03-23T14:01:37;7.50;;;3.50;;
27003;SDS011;14546;47.590;19.022;2024-03-23T14:04:03;8.15;;;2.92;;
27003;SDS011;14546;47.590;19.022;2024-03-23T14:06:29;9.68;;;3.45;;
27003;SDS011;14546;47.590;19.022;2024-03-23T14:08:55;6.47;;;2.92;;
27003;SDS011;14546;47.590;19.022;2024-03-23T14:11:21;6.05;;;3.20;;
27003;SDS011;14546;47.590;19.022;2024-03-23T14:13:47;6.68;;;3.70;;
27003;SDS011;14546;47.590;19.022;2024-03-23T14:16:13;5.85;;;3.40;;
27003;SDS011;14546;47.590;19.022;2024-03-23T14:18:39;4.22;;;3.10;;
27003;SDS011;14546;47.590;19.022;2024-03-23T14:21:05;6.38;;;3.60;;
27003;SDS011;14546;47.590;19.022;2024-03-23T14:23:32;17.58;;;3.90;;
27003;SDS011;14546;47.590;19.022;2024-03-23T14:26:00;4.88;;;3.05;;
27003;SDS011;14546;47.590;19.022;2024-03-23T14:28:26;6.88;;;3.05;;
27003;SDS011;14546;47.590;19.022;2024-03-23T14:30:54;8.80;;;2.88;;
27003;SDS011;14546;47.590;19.022;2024-03-23T14:33:21;5.63;;;2.97;;
27003;SDS011;14546;47.590;19.022;2024-03-23T14:35:54;3.38;;;2.72;;
27003;SDS011;14546;47.590;19.022;2024-03-23T14:38:23;4.22;;;2.78;;
27003;SDS011;14546;47.590;19.022;2024-03-23T14:40:49;4.57;;;3.05;;
27003;SDS011;14546;47.590;19.022;2024-03-23T14:43:18;4.15;;;2.58;;
27003;SDS011;14546;47.590;19.022;2024-03-23T14:48:39;3.88;;;2.85;;
27003;SDS011;14546;47.590;19.022;2024-03-23T14:51:06;6.22;;;3.20;;
27003;SDS011;14546;47.590;19.022;2024-03-23T14:53:36;4.47;;;3.30;;
27003;SDS011;14546;47.590;19.022;2024-03-23T14:56:06;5.40;;;3.88;;
27003;SDS011;14546;47.590;19.022;2024-03-23T14:58:33;7.22;;;3.40;;
27003;SDS011;14546;47.590;19.022;2024-03-23T15:01:02;8.55;;;2.72;;
27003;SDS011;14546;47.590;19.022;2024-03-23T15:03:29;12.90;;;3.45;;
27003;SDS011;14546;47.590;19.022;2024-03-23T15:05:56;6.35;;;3.50;;
27003;SDS011;14546;47.590;19.022;2024-03-23T15:08:23;9.32;;;3.50;;
27003;SDS011;14546;47.590;19.022;2024-03-23T15:10:49;7.47;;;4.45;;
27003;SDS011;14546;47.590;19.022;2024-03-23T15:13:15;5.07;;;3.58;;
27003;SDS011;14546;47.590;19.022;2024-03-23T15:15:41;12.48;;;5.90;;
27003;SDS011;14546;47.590;19.022;2024-03-23T15:18:14;10.52;;;6.13;;
27003;SDS011;14546;47.590;19.022;2024-03-23T15:20:41;10.43;;;4.22;;
27003;SDS011;14546;47.590;19.022;2024-03-23T15:23:16;8.80;;;4.03;;
27003;SDS011;14546;47.590;19.022;2024-03-23T15:25:42;5.80;;;3.13;;
27003;SDS011;14546;47.590;19.022;2024-03-23T15:28:07;10.23;;;4.18;;
27003;SDS011;14546;47.590;19.022;2024-03-23T15:30:33;12.85;;;3.42;;
27003;SDS011;14546;47.590;19.022;2024-03-23T15:32:58;8.80;;;3.85;;
27003;SDS011;14546;47.590;19.022;2024-03-23T15:35:24;8.05;;;3.40;;
27003;SDS011;14546;47.590;19.022;2024-03-23T15:37:50;6.38;;;3.42;;